sensor_id;sensor_type;location;lat;lon;timestamp;P1;durP1;ratioP1;P2;durP2;ratioP2
56425;SDS011;42330;43.620;3.856;2022-12-18T00:01:01;15.95;;;11.40;;
56425;SDS011;42330;43.620;3.856;2022-12-18T00:03:32;18.13;;;10.30;;
56425;SDS011;42330;43.620;3.856;2022-12-18T00:05:58;15.93;;;9.90;;
56425;SDS011;42330;43.620;3.856;2022-12-18T00:08:24;12.43;;;9.00;;
56425;SDS011;42330;43.620;3.856;2022-12-18T00:10:50;13.07;;;10.00;;
56425;SDS011;42330;43.620;3.856;2022-12-18T00:13:15;14.05;;;9.70;;
56425;SDS011;42330;43.620;3.856;2022-12-18T00:15:41;14.18;;;9.77;;
56425;SDS011;42330;43.620;3.856;2022-12-18T00:18:07;13.90;;;9.68;;
56425;SDS011;42330;43.620;3.856;2022-12-18T00:20:36;12.60;;;9.50;;
56425;SDS011;42330;43.620;3.856;2022-12-18T00:23:03;12.55;;;8.75;;
56425;SDS011;42330;43.620;3.856;2022-12-18T00:25:29;13.00;;;8.75;;
56425;SDS011;42330;43.620;3.856;2022-12-18T00:27:57;13.90;;;9.65;;
56425;SDS011;42330;43.620;3.856;2022-12-18T00:30:22;15.82;;;9.77;;
56425;SDS011;42330;43.620;3.856;2022-12-18T00:32:48;13.07;;;9.07;;
56425;SDS011;42330;43.620;3.856;2022-12-18T00:35:13;12.38;;;9.00;;
56425;SDS011;42330;43.620;3.856;2022-12-18T00:37:39;11.85;;;8.50;;
56425;SDS011;42330;43.620;3.856;2022-12-18T00:40:05;11.60;;;8.55;;
56425;SDS011;42330;43.620;3.856;2022-12-18T00:42:31;14.02;;;9.00;;
56425;SDS011;42330;43.620;3.856;2022-12-18T00:45:16;11.60;;;8.52;;
56425;SDS011;42330;43.620;3.856;2022-12-18T00:47:41;11.90;;;8.65;;
56425;SDS011;42330;43.620;3.856;2022-12-18T00:50:07;12.52;;;8.40;;
56425;SDS011;42330;43.620;3.856;2022-12-18T00:52:33;10.52;;;8.02;;
56425;SDS011;42330;43.620;3.856;2022-12-18T00:54:59;10.48;;;7.75;;
56425;SDS011;42330;43.620;3.856;2022-12-18T00:57:24;14.10;;;8.55;;
56425;SDS011;42330;43.620;3.856;2022-12-18T00:59:50;15.90;;;8.95;;
56425;SDS011;42330;43.620;3.856;2022-12-18T01:02:16;12.48;;;8.93;;
56425;SDS011;42330;43.620;3.856;2022-12-18T01:04:41;13.07;;;9.02;;
56425;SDS011;42330;43.620;3.856;2022-12-18T01:07:07;11.90;;;9.25;;
56425;SDS011;42330;43.620;3.856;2022-12-18T01:09:32;11.85;;;8.18;;
56425;SDS011;42330;43.620;3.856;2022-12-18T01:11:59;9.70;;;7.32;;
56425;SDS011;42330;43.620;3.856;2022-12-18T01:14:25;11.05;;;8.10;;
56425;SDS011;42330;43.620;3.856;2022-12-18T01:16:50;11.30;;;7.07;;
56425;SDS011;42330;43.620;3.856;2022-12-18T01:19:16;9.93;;;7.68;;
56425;SDS011;42330;43.620;3.856;2022-12-18T01:21:42;10.13;;;6.95;;
56425;SDS011;42330;43.620;3.856;2022-12-18T01:24:07;10.07;;;7.25;;
56425;SDS011;42330;43.620;3.856;2022-12-18T01:26:36;10.32;;;7.15;;
56425;SDS011;42330;43.620;3.856;2022-12-18T01:29:02;33.97;;;20.17;;
56425;SDS011;42330;43.620;3.856;2022-12-18T01:31:28;22.38;;;14.30;;
56425;SDS011;42330;43.620;3.856;2022-12-18T01:33:56;15.48;;;10.23;;
56425;SDS011;42330;43.620;3.856;2022-12-18T01:36:26;17.45;;;10.30;;
56425;SDS011;42330;43.620;3.856;2022-12-18T01:38:54;15.63;;;9.55;;
56425;SDS011;42330;43.620;3.856;2022-12-18T01:41:24;13.57;;;9.20;;
56425;SDS011;42330;43.620;3.856;2022-12-18T01:43:53;12.88;;;8.95;;
56425;SDS011;42330;43.620;3.856;2022-12-18T01:46:25;13.60;;;9.15;;
56425;SDS011;42330;43.620;3.856;2022-12-18T01:48:59;13.73;;;8.45;;
56425;SDS011;42330;43.620;3.856;2022-12-18T01:53:52;12.15;;;8.10;;
56425;SDS011;42330;43.620;3.856;2022-12-18T01:56:18;10.40;;;8.00;;
56425;SDS011;42330;43.620;3.856;2022-12-18T01:58:48;9.85;;;7.45;;
56425;SDS011;42330;43.620;3.856;2022-12-18T02:01:15;9.07;;;6.70;;
56425;SDS011;42330;43.620;3.856;2022-12-18T02:03:44;8.98;;;6.70;;
56425;SDS011;42330;43.620;3.856;2022-12-18T02:14:41;8.55;;;6.13;;
56425;SDS011;42330;43.620;3.856;2022-12-18T02:17:19;8.52;;;5.90;;
56425;SDS011;42330;43.620;3.856;2022-12-18T02:20:01;7.32;;;5.70;;
56425;SDS011;42330;43.620;3.856;2022-12-18T02:28:09;8.57;;;5.97;;
56425;SDS011;42330;43.620;3.856;2022-12-18T02:30:38;8.27;;;6.20;;
56425;SDS011;42330;43.620;3.856;2022-12-18T02:33:06;8.27;;;6.18;;
56425;SDS011;42330;43.620;3.856;2022-12-18T02:35:34;10.27;;;6.00;;
56425;SDS011;42330;43.620;3.856;2022-12-18T02:38:01;7.75;;;5.63;;
56425;SDS011;42330;43.620;3.856;2022-12-18T02:40:28;7.90;;;6.13;;
56425;SDS011;42330;43.620;3.856;2022-12-18T02:42:55;7.05;;;5.57;;
56425;SDS011;42330;43.620;3.856;2022-12-18T02:45:26;6.88;;;5.45;;
56425;SDS011;42330;43.620;3.856;2022-12-18T02:47:52;6.43;;;5.03;;
56425;SDS011;42330;43.620;3.856;2022-12-18T02:53:14;7.50;;;5.65;;
56425;SDS011;42330;43.620;3.856;2022-12-18T02:56:27;6.82;;;5.45;;
56425;SDS011;42330;43.620;3.856;2022-12-18T02:58:32;10.85;;;5.40;;
56425;SDS011;42330;43.620;3.856;2022-12-18T03:04:03;8.25;;;5.72;;
56425;SDS011;42330;43.620;3.856;2022-12-18T03:06:37;7.88;;;5.50;;
56425;SDS011;42330;43.620;3.856;2022-12-18T03:09:50;8.10;;;5.40;;
56425;SDS011;42330;43.620;3.856;2022-12-18T03:12:10;6.78;;;5.15;;
56425;SDS011;42330;43.620;3.856;2022-12-18T03:15:08;7.03;;;5.32;;
56425;SDS011;42330;43.620;3.856;2022-12-18T03:17:35;6.82;;;5.22;;
56425;SDS011;42330;43.620;3.856;2022-12-18T03:20:08;7.60;;;5.00;;
56425;SDS011;42330;43.620;3.856;2022-12-18T03:22:37;7.78;;;5.30;;
56425;SDS011;42330;43.620;3.856;2022-12-18T03:25:06;7.05;;;5.32;;
56425;SDS011;42330;43.620;3.856;2022-12-18T03:27:35;8.23;;;5.30;;
56425;SDS011;42330;43.620;3.856;2022-12-18T03:30:07;7.30;;;5.07;;
56425;SDS011;42330;43.620;3.856;2022-12-18T03:35:24;7.05;;;5.05;;
56425;SDS011;42330;43.620;3.856;2022-12-18T03:37:54;5.53;;;4.63;;
56425;SDS011;42330;43.620;3.856;2022-12-18T03:40:21;6.90;;;4.78;;
56425;SDS011;42330;43.620;3.856;2022-12-18T03:42:56;6.00;;;4.55;;
56425;SDS011;42330;43.620;3.856;2022-12-18T03:45:41;6.28;;;4.53;;
56425;SDS011;42330;43.620;3.856;2022-12-18T03:50:58;6.10;;;4.47;;
56425;SDS011;42330;43.620;3.856;2022-12-18T03:56:14;6.70;;;4.72;;
56425;SDS011;42330;43.620;3.856;2022-12-18T03:58:41;6.07;;;4.68;;
56425;SDS011;42330;43.620;3.856;2022-12-18T04:01:08;6.60;;;4.65;;
56425;SDS011;42330;43.620;3.856;2022-12-18T04:03:38;5.97;;;4.57;;
56425;SDS011;42330;43.620;3.856;2022-12-18T04:06:06;7.00;;;4.88;;
56425;SDS011;42330;43.620;3.856;2022-12-18T04:08:32;6.18;;;4.60;;
56425;SDS011;42330;43.620;3.856;2022-12-18T04:10:59;6.97;;;5.07;;
56425;SDS011;42330;43.620;3.856;2022-12-18T04:13:31;6.20;;;5.10;;
56425;SDS011;42330;43.620;3.856;2022-12-18T04:15:59;6.82;;;4.72;;
56425;SDS011;42330;43.620;3.856;2022-12-18T04:18:26;6.38;;;4.85;;
56425;SDS011;42330;43.620;3.856;2022-12-18T04:20:51;6.60;;;4.97;;
56425;SDS011;42330;43.620;3.856;2022-12-18T04:23:17;6.25;;;4.97;;
56425;SDS011;42330;43.620;3.856;2022-12-18T04:25:43;6.38;;;5.05;;
56425;SDS011;42330;43.620;3.856;2022-12-18T04:28:09;6.05;;;4.50;;
56425;SDS011;42330;43.620;3.856;2022-12-18T04:30:34;6.10;;;4.60;;
56425;SDS011;42330;43.620;3.856;2022-12-18T04:33:00;6.55;;;5.07;;
56425;SDS011;42330;43.620;3.856;2022-12-18T04:35:26;6.00;;;4.70;;
56425;SDS011;42330;43.620;3.856;2022-12-18T04:37:52;6.55;;;5.03;;
56425;SDS011;42330;43.620;3.856;2022-12-18T04:40:17;6.15;;;4.45;;
56425;SDS011;42330;43.620;3.856;2022-12-18T04:42:43;6.05;;;4.50;;
56425;SDS011;42330;43.620;3.856;2022-12-18T04:45:09;5.95;;;4.53;;
56425;SDS011;42330;43.620;3.856;2022-12-18T04:47:34;7.05;;;4.80;;
56425;SDS011;42330;43.620;3.856;2022-12-18T04:50:00;5.50;;;4.28;;
56425;SDS011;42330;43.620;3.856;2022-12-18T04:52:26;7.03;;;4.18;;
56425;SDS011;42330;43.620;3.856;2022-12-18T04:54:52;6.22;;;4.07;;
56425;SDS011;42330;43.620;3.856;2022-12-18T04:57:17;5.32;;;4.15;;
56425;SDS011;42330;43.620;3.856;2022-12-18T04:59:43;5.78;;;4.32;;
56425;SDS011;42330;43.620;3.856;2022-12-18T05:02:09;8.13;;;4.00;;
56425;SDS011;42330;43.620;3.856;2022-12-18T05:04:35;5.85;;;4.22;;
56425;SDS011;42330;43.620;3.856;2022-12-18T05:07:01;5.82;;;4.03;;
56425;SDS011;42330;43.620;3.856;2022-12-18T05:09:26;5.38;;;3.72;;
56425;SDS011;42330;43.620;3.856;2022-12-18T05:11:52;6.55;;;3.60;;
56425;SDS011;42330;43.620;3.856;2022-12-18T05:14:18;8.30;;;4.28;;
56425;SDS011;42330;43.620;3.856;2022-12-18T05:16:44;4.95;;;3.70;;
56425;SDS011;42330;43.620;3.856;2022-12-18T05:19:10;6.97;;;4.07;;
56425;SDS011;42330;43.620;3.856;2022-12-18T05:21:36;5.38;;;3.45;;
56425;SDS011;42330;43.620;3.856;2022-12-18T05:24:01;6.53;;;3.95;;
56425;SDS011;42330;43.620;3.856;2022-12-18T05:26:27;4.53;;;3.65;;
56425;SDS011;42330;43.620;3.856;2022-12-18T05:28:56;4.82;;;3.80;;
56425;SDS011;42330;43.620;3.856;2022-12-18T05:31:21;6.13;;;3.80;;
56425;SDS011;42330;43.620;3.856;2022-12-18T05:33:50;4.47;;;3.47;;
56425;SDS011;42330;43.620;3.856;2022-12-18T05:36:16;4.93;;;3.72;;
56425;SDS011;42330;43.620;3.856;2022-12-18T05:38:42;4.70;;;3.53;;
56425;SDS011;42330;43.620;3.856;2022-12-18T05:41:08;9.10;;;5.32;;
56425;SDS011;42330;43.620;3.856;2022-12-18T05:43:35;8.30;;;5.22;;
56425;SDS011;42330;43.620;3.856;2022-12-18T05:46:05;8.18;;;4.47;;
56425;SDS011;42330;43.620;3.856;2022-12-18T05:48:32;7.10;;;4.30;;
56425;SDS011;42330;43.620;3.856;2022-12-18T05:51:03;7.15;;;4.55;;
56425;SDS011;42330;43.620;3.856;2022-12-18T05:53:30;5.20;;;4.03;;
56425;SDS011;42330;43.620;3.856;2022-12-18T05:55:59;5.82;;;3.80;;
56425;SDS011;42330;43.620;3.856;2022-12-18T05:58:26;4.47;;;3.30;;
56425;SDS011;42330;43.620;3.856;2022-12-18T06:00:52;5.10;;;3.38;;
56425;SDS011;42330;43.620;3.856;2022-12-18T06:03:17;4.25;;;2.95;;
56425;SDS011;42330;43.620;3.856;2022-12-18T06:05:44;4.10;;;2.97;;
56425;SDS011;42330;43.620;3.856;2022-12-18T06:08:10;3.35;;;2.53;;
56425;SDS011;42330;43.620;3.856;2022-12-18T06:10:37;4.70;;;3.33;;
56425;SDS011;42330;43.620;3.856;2022-12-18T06:13:03;4.18;;;3.15;;
56425;SDS011;42330;43.620;3.856;2022-12-18T06:15:29;4.63;;;3.25;;
56425;SDS011;42330;43.620;3.856;2022-12-18T06:17:55;3.78;;;2.95;;
56425;SDS011;42330;43.620;3.856;2022-12-18T06:20:21;5.03;;;3.45;;
56425;SDS011;42330;43.620;3.856;2022-12-18T06:22:47;5.57;;;3.35;;
56425;SDS011;42330;43.620;3.856;2022-12-18T06:25:12;7.32;;;3.47;;
56425;SDS011;42330;43.620;3.856;2022-12-18T06:27:38;4.90;;;3.40;;
56425;SDS011;42330;43.620;3.856;2022-12-18T06:30:04;3.85;;;3.05;;
56425;SDS011;42330;43.620;3.856;2022-12-18T06:32:30;4.32;;;3.13;;
56425;SDS011;42330;43.620;3.856;2022-12-18T06:34:56;3.88;;;3.17;;
56425;SDS011;42330;43.620;3.856;2022-12-18T06:37:22;4.00;;;2.72;;
56425;SDS011;42330;43.620;3.856;2022-12-18T06:39:51;3.65;;;2.85;;
56425;SDS011;42330;43.620;3.856;2022-12-18T06:42:17;5.45;;;2.40;;
56425;SDS011;42330;43.620;3.856;2022-12-18T06:44:43;4.50;;;3.10;;
56425;SDS011;42330;43.620;3.856;2022-12-18T06:47:09;5.40;;;3.00;;
56425;SDS011;42330;43.620;3.856;2022-12-18T06:49:35;4.82;;;2.80;;
56425;SDS011;42330;43.620;3.856;2022-12-18T06:52:00;3.92;;;2.70;;
56425;SDS011;42330;43.620;3.856;2022-12-18T06:54:26;5.03;;;2.88;;
56425;SDS011;42330;43.620;3.856;2022-12-18T06:56:52;4.00;;;2.70;;
56425;SDS011;42330;43.620;3.856;2022-12-18T06:59:17;3.58;;;2.63;;
56425;SDS011;42330;43.620;3.856;2022-12-18T07:01:43;4.88;;;2.92;;
56425;SDS011;42330;43.620;3.856;2022-12-18T07:04:08;3.53;;;2.63;;
56425;SDS011;42330;43.620;3.856;2022-12-18T07:06:34;4.85;;;3.00;;
56425;SDS011;42330;43.620;3.856;2022-12-18T07:09:00;4.00;;;2.67;;
56425;SDS011;42330;43.620;3.856;2022-12-18T07:11:25;4.15;;;2.90;;
56425;SDS011;42330;43.620;3.856;2022-12-18T07:13:51;3.80;;;2.80;;
56425;SDS011;42330;43.620;3.856;2022-12-18T07:16:18;4.25;;;2.47;;
56425;SDS011;42330;43.620;3.856;2022-12-18T07:18:44;4.43;;;2.90;;
56425;SDS011;42330;43.620;3.856;2022-12-18T07:21:11;4.40;;;2.67;;
56425;SDS011;42330;43.620;3.856;2022-12-18T07:23:42;4.32;;;2.90;;
56425;SDS011;42330;43.620;3.856;2022-12-18T07:26:11;5.20;;;3.05;;
56425;SDS011;42330;43.620;3.856;2022-12-18T07:28:38;4.15;;;3.00;;
56425;SDS011;42330;43.620;3.856;2022-12-18T07:31:05;3.88;;;2.72;;
56425;SDS011;42330;43.620;3.856;2022-12-18T07:33:33;3.35;;;2.58;;
56425;SDS011;42330;43.620;3.856;2022-12-18T07:35:59;4.07;;;2.88;;
56425;SDS011;42330;43.620;3.856;2022-12-18T07:38:26;4.32;;;2.90;;
56425;SDS011;42330;43.620;3.856;2022-12-18T07:40:52;4.57;;;2.92;;
56425;SDS011;42330;43.620;3.856;2022-12-18T07:43:17;4.53;;;2.95;;
56425;SDS011;42330;43.620;3.856;2022-12-18T07:45:43;4.80;;;2.60;;
56425;SDS011;42330;43.620;3.856;2022-12-18T07:48:09;3.40;;;2.55;;
56425;SDS011;42330;43.620;3.856;2022-12-18T07:50:34;4.53;;;3.17;;
56425;SDS011;42330;43.620;3.856;2022-12-18T07:53:00;4.63;;;3.13;;
56425;SDS011;42330;43.620;3.856;2022-12-18T07:55:30;4.93;;;3.10;;
56425;SDS011;42330;43.620;3.856;2022-12-18T07:57:56;4.25;;;3.13;;
56425;SDS011;42330;43.620;3.856;2022-12-18T08:00:22;4.47;;;3.05;;
56425;SDS011;42330;43.620;3.856;2022-12-18T08:02:47;5.13;;;3.58;;
56425;SDS011;42330;43.620;3.856;2022-12-18T08:05:13;4.95;;;3.17;;
56425;SDS011;42330;43.620;3.856;2022-12-18T08:07:39;5.20;;;3.42;;
56425;SDS011;42330;43.620;3.856;2022-12-18T08:10:05;7.03;;;3.22;;
56425;SDS011;42330;43.620;3.856;2022-12-18T08:12:31;4.30;;;2.90;;
56425;SDS011;42330;43.620;3.856;2022-12-18T08:14:57;4.50;;;3.38;;
56425;SDS011;42330;43.620;3.856;2022-12-18T08:17:22;6.93;;;3.30;;
56425;SDS011;42330;43.620;3.856;2022-12-18T08:19:48;6.18;;;3.40;;
56425;SDS011;42330;43.620;3.856;2022-12-18T08:22:14;4.93;;;3.50;;
56425;SDS011;42330;43.620;3.856;2022-12-18T08:24:39;4.28;;;3.38;;
56425;SDS011;42330;43.620;3.856;2022-12-18T08:27:05;4.60;;;3.30;;
56425;SDS011;42330;43.620;3.856;2022-12-18T08:29:31;5.05;;;3.42;;
56425;SDS011;42330;43.620;3.856;2022-12-18T08:31:57;4.45;;;2.95;;
56425;SDS011;42330;43.620;3.856;2022-12-18T08:34:22;3.97;;;2.75;;
56425;SDS011;42330;43.620;3.856;2022-12-18T08:36:48;3.97;;;2.60;;
56425;SDS011;42330;43.620;3.856;2022-12-18T08:39:14;4.05;;;2.78;;
56425;SDS011;42330;43.620;3.856;2022-12-18T08:41:39;5.40;;;3.22;;
56425;SDS011;42330;43.620;3.856;2022-12-18T08:44:07;3.90;;;2.80;;
56425;SDS011;42330;43.620;3.856;2022-12-18T08:46:51;4.40;;;2.80;;
56425;SDS011;42330;43.620;3.856;2022-12-18T08:49:17;5.47;;;2.85;;
56425;SDS011;42330;43.620;3.856;2022-12-18T08:51:43;4.35;;;2.90;;
56425;SDS011;42330;43.620;3.856;2022-12-18T08:54:10;7.10;;;4.10;;
56425;SDS011;42330;43.620;3.856;2022-12-18T08:56:37;7.93;;;4.97;;
56425;SDS011;42330;43.620;3.856;2022-12-18T08:59:03;13.02;;;6.03;;
56425;SDS011;42330;43.620;3.856;2022-12-18T09:01:29;9.05;;;5.82;;
56425;SDS011;42330;43.620;3.856;2022-12-18T09:03:55;7.15;;;4.35;;
56425;SDS011;42330;43.620;3.856;2022-12-18T09:06:21;6.05;;;3.75;;
56425;SDS011;42330;43.620;3.856;2022-12-18T09:08:47;4.95;;;3.40;;
56425;SDS011;42330;43.620;3.856;2022-12-18T09:11:15;5.45;;;3.40;;
56425;SDS011;42330;43.620;3.856;2022-12-18T09:13:48;5.03;;;3.40;;
56425;SDS011;42330;43.620;3.856;2022-12-18T09:16:15;5.13;;;3.13;;
56425;SDS011;42330;43.620;3.856;2022-12-18T09:18:41;5.80;;;3.60;;
56425;SDS011;42330;43.620;3.856;2022-12-18T09:21:07;4.05;;;3.00;;
56425;SDS011;42330;43.620;3.856;2022-12-18T09:23:34;3.85;;;3.05;;
56425;SDS011;42330;43.620;3.856;2022-12-18T09:26:00;4.07;;;2.90;;
56425;SDS011;42330;43.620;3.856;2022-12-18T09:28:25;4.38;;;3.08;;
56425;SDS011;42330;43.620;3.856;2022-12-18T09:30:52;4.97;;;3.22;;
56425;SDS011;42330;43.620;3.856;2022-12-18T09:33:17;5.55;;;3.25;;
56425;SDS011;42330;43.620;3.856;2022-12-18T09:35:44;6.05;;;3.50;;
56425;SDS011;42330;43.620;3.856;2022-12-18T09:38:14;5.63;;;3.22;;
56425;SDS011;42330;43.620;3.856;2022-12-18T09:43:19;4.63;;;2.95;;
56425;SDS011;42330;43.620;3.856;2022-12-18T09:45:50;5.13;;;2.97;;
56425;SDS011;42330;43.620;3.856;2022-12-18T09:48:27;4.32;;;2.75;;
56425;SDS011;42330;43.620;3.856;2022-12-18T09:50:58;4.00;;;2.55;;
56425;SDS011;42330;43.620;3.856;2022-12-18T09:53:37;5.75;;;4.20;;
56425;SDS011;42330;43.620;3.856;2022-12-18T09:56:06;5.80;;;3.90;;
56425;SDS011;42330;43.620;3.856;2022-12-18T10:01:14;3.80;;;3.10;;
56425;SDS011;42330;43.620;3.856;2022-12-18T10:03:44;4.43;;;3.30;;
56425;SDS011;42330;43.620;3.856;2022-12-18T10:09:27;7.97;;;4.63;;
56425;SDS011;42330;43.620;3.856;2022-12-18T10:17:22;6.30;;;4.28;;
56425;SDS011;42330;43.620;3.856;2022-12-18T10:25:37;6.40;;;3.60;;
56425;SDS011;42330;43.620;3.856;2022-12-18T10:28:13;6.55;;;4.18;;
56425;SDS011;42330;43.620;3.856;2022-12-18T10:30:40;12.95;;;10.27;;
56425;SDS011;42330;43.620;3.856;2022-12-18T10:33:16;9.82;;;6.82;;
56425;SDS011;42330;43.620;3.856;2022-12-18T10:35:44;6.88;;;4.45;;
56425;SDS011;42330;43.620;3.856;2022-12-18T10:40:56;7.03;;;3.75;;
56425;SDS011;42330;43.620;3.856;2022-12-18T10:47:05;6.05;;;3.85;;
56425;SDS011;42330;43.620;3.856;2022-12-18T10:49:36;5.43;;;3.63;;
56425;SDS011;42330;43.620;3.856;2022-12-18T10:52:15;5.43;;;3.70;;
56425;SDS011;42330;43.620;3.856;2022-12-18T11:00:23;6.72;;;3.83;;
56425;SDS011;42330;43.620;3.856;2022-12-18T11:02:55;6.97;;;3.95;;
56425;SDS011;42330;43.620;3.856;2022-12-18T11:07:56;6.20;;;4.28;;
56425;SDS011;42330;43.620;3.856;2022-12-18T11:10:26;7.07;;;4.45;;
56425;SDS011;42330;43.620;3.856;2022-12-18T11:13:17;13.90;;;8.38;;
56425;SDS011;42330;43.620;3.856;2022-12-18T11:15:46;16.30;;;10.77;;
56425;SDS011;42330;43.620;3.856;2022-12-18T11:21:09;34.00;;;24.13;;
56425;SDS011;42330;43.620;3.856;2022-12-18T11:23:37;14.55;;;10.13;;
56425;SDS011;42330;43.620;3.856;2022-12-18T11:26:15;9.48;;;6.40;;
56425;SDS011;42330;43.620;3.856;2022-12-18T11:28:52;8.23;;;5.50;;
56425;SDS011;42330;43.620;3.856;2022-12-18T11:31:32;8.70;;;4.90;;
56425;SDS011;42330;43.620;3.856;2022-12-18T11:34:18;5.88;;;4.40;;
56425;SDS011;42330;43.620;3.856;2022-12-18T11:36:46;6.80;;;4.30;;
56425;SDS011;42330;43.620;3.856;2022-12-18T11:39:17;5.22;;;3.72;;
56425;SDS011;42330;43.620;3.856;2022-12-18T11:42:09;6.50;;;3.88;;
56425;SDS011;42330;43.620;3.856;2022-12-18T11:44:52;5.03;;;3.70;;
56425;SDS011;42330;43.620;3.856;2022-12-18T11:51:10;5.30;;;3.72;;
56425;SDS011;42330;43.620;3.856;2022-12-18T11:53:02;6.35;;;3.70;;
56425;SDS011;42330;43.620;3.856;2022-12-18T12:07:09;4.57;;;3.08;;
56425;SDS011;42330;43.620;3.856;2022-12-18T12:20:49;4.97;;;3.83;;
56425;SDS011;42330;43.620;3.856;2022-12-18T12:26:30;6.18;;;3.60;;
56425;SDS011;42330;43.620;3.856;2022-12-18T12:29:10;6.85;;;3.70;;
56425;SDS011;42330;43.620;3.856;2022-12-18T12:38:00;9.70;;;6.13;;
56425;SDS011;42330;43.620;3.856;2022-12-18T12:40:37;16.27;;;9.45;;
56425;SDS011;42330;43.620;3.856;2022-12-18T12:43:22;11.68;;;6.90;;
56425;SDS011;42330;43.620;3.856;2022-12-18T12:46:10;8.35;;;5.70;;
56425;SDS011;42330;43.620;3.856;2022-12-18T12:48:40;10.43;;;6.25;;
56425;SDS011;42330;43.620;3.856;2022-12-18T12:51:20;7.97;;;5.13;;
56425;SDS011;42330;43.620;3.856;2022-12-18T12:54:01;7.97;;;4.53;;
56425;SDS011;42330;43.620;3.856;2022-12-18T13:08:06;22.53;;;16.07;;
56425;SDS011;42330;43.620;3.856;2022-12-18T13:18:33;12.25;;;8.70;;
56425;SDS011;42330;43.620;3.856;2022-12-18T13:23:26;11.20;;;7.47;;
56425;SDS011;42330;43.620;3.856;2022-12-18T13:25:57;17.55;;;12.80;;
56425;SDS011;42330;43.620;3.856;2022-12-18T13:31:10;13.60;;;9.82;;
56425;SDS011;42330;43.620;3.856;2022-12-18T13:33:37;11.13;;;7.20;;
56425;SDS011;42330;43.620;3.856;2022-12-18T13:38:47;8.98;;;6.10;;
56425;SDS011;42330;43.620;3.856;2022-12-18T13:41:38;9.68;;;6.38;;
56425;SDS011;42330;43.620;3.856;2022-12-18T13:46:46;9.07;;;6.20;;
56425;SDS011;42330;43.620;3.856;2022-12-18T13:51:49;8.27;;;5.25;;
56425;SDS011;42330;43.620;3.856;2022-12-18T13:54:36;10.32;;;6.95;;
56425;SDS011;42330;43.620;3.856;2022-12-18T13:57:05;7.55;;;6.07;;
56425;SDS011;42330;43.620;3.856;2022-12-18T13:59:49;10.07;;;5.82;;
56425;SDS011;42330;43.620;3.856;2022-12-18T14:02:16;9.32;;;5.65;;
56425;SDS011;42330;43.620;3.856;2022-12-18T14:04:46;9.30;;;6.00;;
56425;SDS011;42330;43.620;3.856;2022-12-18T14:07:22;10.18;;;6.57;;
56425;SDS011;42330;43.620;3.856;2022-12-18T14:09:51;9.43;;;7.20;;
56425;SDS011;42330;43.620;3.856;2022-12-18T14:12:25;10.57;;;8.27;;
56425;SDS011;42330;43.620;3.856;2022-12-18T14:17:55;8.25;;;5.20;;
56425;SDS011;42330;43.620;3.856;2022-12-18T14:20:22;9.00;;;5.90;;
56425;SDS011;42330;43.620;3.856;2022-12-18T14:22:51;8.88;;;5.78;;
56425;SDS011;42330;43.620;3.856;2022-12-18T14:27:46;10.25;;;6.20;;
56425;SDS011;42330;43.620;3.856;2022-12-18T14:30:31;9.85;;;6.25;;
56425;SDS011;42330;43.620;3.856;2022-12-18T14:33:09;12.70;;;8.63;;
56425;SDS011;42330;43.620;3.856;2022-12-18T14:35:56;15.00;;;9.27;;
56425;SDS011;42330;43.620;3.856;2022-12-18T14:38:26;10.10;;;6.80;;
56425;SDS011;42330;43.620;3.856;2022-12-18T14:40:59;9.88;;;6.70;;
56425;SDS011;42330;43.620;3.856;2022-12-18T14:43:27;9.50;;;6.40;;
56425;SDS011;42330;43.620;3.856;2022-12-18T14:45:55;11.30;;;7.20;;
56425;SDS011;42330;43.620;3.856;2022-12-18T14:51:03;9.90;;;6.38;;
56425;SDS011;42330;43.620;3.856;2022-12-18T14:53:37;10.38;;;6.38;;
56425;SDS011;42330;43.620;3.856;2022-12-18T14:56:03;10.77;;;6.72;;
56425;SDS011;42330;43.620;3.856;2022-12-18T14:58:38;11.30;;;8.02;;
56425;SDS011;42330;43.620;3.856;2022-12-18T15:01:04;14.43;;;8.75;;
56425;SDS011;42330;43.620;3.856;2022-12-18T15:03:30;15.38;;;9.70;;
56425;SDS011;42330;43.620;3.856;2022-12-18T15:05:56;20.75;;;12.70;;
56425;SDS011;42330;43.620;3.856;2022-12-18T15:08:51;24.13;;;16.10;;
56425;SDS011;42330;43.620;3.856;2022-12-18T15:11:28;20.60;;;13.32;;
56425;SDS011;42330;43.620;3.856;2022-12-18T15:14:21;20.80;;;13.10;;
56425;SDS011;42330;43.620;3.856;2022-12-18T15:17:15;30.25;;;20.15;;
56425;SDS011;42330;43.620;3.856;2022-12-18T15:19:46;36.55;;;24.85;;
56425;SDS011;42330;43.620;3.856;2022-12-18T15:22:18;49.72;;;32.22;;
56425;SDS011;42330;43.620;3.856;2022-12-18T15:25:01;49.78;;;31.00;;
56425;SDS011;42330;43.620;3.856;2022-12-18T15:32:38;36.05;;;18.83;;
56425;SDS011;42330;43.620;3.856;2022-12-18T15:37:33;41.92;;;23.85;;
56425;SDS011;42330;43.620;3.856;2022-12-18T15:39:59;40.17;;;25.23;;
56425;SDS011;42330;43.620;3.856;2022-12-18T15:42:25;31.40;;;19.60;;
56425;SDS011;42330;43.620;3.856;2022-12-18T15:45:12;25.38;;;17.10;;
56425;SDS011;42330;43.620;3.856;2022-12-18T15:47:38;16.55;;;10.57;;
56425;SDS011;42330;43.620;3.856;2022-12-18T15:50:04;24.20;;;14.90;;
56425;SDS011;42330;43.620;3.856;2022-12-18T15:52:38;14.07;;;11.02;;
56425;SDS011;42330;43.620;3.856;2022-12-18T15:55:13;10.95;;;7.90;;
56425;SDS011;42330;43.620;3.856;2022-12-18T15:57:59;10.32;;;6.43;;
56425;SDS011;42330;43.620;3.856;2022-12-18T16:00:25;7.47;;;5.68;;
56425;SDS011;42330;43.620;3.856;2022-12-18T16:02:51;12.10;;;7.78;;
56425;SDS011;42330;43.620;3.856;2022-12-18T16:05:17;12.77;;;8.68;;
56425;SDS011;42330;43.620;3.856;2022-12-18T16:07:45;11.25;;;7.97;;
56425;SDS011;42330;43.620;3.856;2022-12-18T16:10:11;12.80;;;7.68;;
56425;SDS011;42330;43.620;3.856;2022-12-18T16:12:37;9.75;;;6.15;;
56425;SDS011;42330;43.620;3.856;2022-12-18T16:15:03;10.20;;;6.60;;
56425;SDS011;42330;43.620;3.856;2022-12-18T16:17:30;9.27;;;5.97;;
56425;SDS011;42330;43.620;3.856;2022-12-18T16:19:56;11.20;;;6.90;;
56425;SDS011;42330;43.620;3.856;2022-12-18T16:22:27;9.48;;;6.57;;
56425;SDS011;42330;43.620;3.856;2022-12-18T16:24:54;10.15;;;7.10;;
56425;SDS011;42330;43.620;3.856;2022-12-18T16:27:21;11.07;;;7.15;;
56425;SDS011;42330;43.620;3.856;2022-12-18T16:29:47;11.15;;;8.05;;
56425;SDS011;42330;43.620;3.856;2022-12-18T16:32:14;18.08;;;11.85;;
56425;SDS011;42330;43.620;3.856;2022-12-18T16:34:45;14.80;;;8.75;;
56425;SDS011;42330;43.620;3.856;2022-12-18T16:37:12;11.77;;;7.28;;
56425;SDS011;42330;43.620;3.856;2022-12-18T16:39:39;9.52;;;6.78;;
56425;SDS011;42330;43.620;3.856;2022-12-18T16:42:06;10.90;;;6.63;;
56425;SDS011;42330;43.620;3.856;2022-12-18T16:44:41;10.82;;;6.60;;
56425;SDS011;42330;43.620;3.856;2022-12-18T16:47:07;14.02;;;11.45;;
56425;SDS011;42330;43.620;3.856;2022-12-18T16:49:33;15.43;;;10.27;;
56425;SDS011;42330;43.620;3.856;2022-12-18T16:51:59;18.33;;;10.15;;
56425;SDS011;42330;43.620;3.856;2022-12-18T16:54:26;16.77;;;11.15;;
56425;SDS011;42330;43.620;3.856;2022-12-18T16:56:54;14.98;;;10.77;;
56425;SDS011;42330;43.620;3.856;2022-12-18T16:59:21;16.73;;;11.25;;
56425;SDS011;42330;43.620;3.856;2022-12-18T17:01:46;14.63;;;9.88;;
56425;SDS011;42330;43.620;3.856;2022-12-18T17:04:12;14.77;;;9.52;;
56425;SDS011;42330;43.620;3.856;2022-12-18T17:06:39;16.63;;;11.45;;
56425;SDS011;42330;43.620;3.856;2022-12-18T17:09:09;17.58;;;10.98;;
56425;SDS011;42330;43.620;3.856;2022-12-18T17:11:40;14.57;;;9.43;;
56425;SDS011;42330;43.620;3.856;2022-12-18T17:14:11;9.40;;;7.13;;
56425;SDS011;42330;43.620;3.856;2022-12-18T17:16:39;11.05;;;6.95;;
56425;SDS011;42330;43.620;3.856;2022-12-18T17:19:05;10.63;;;6.47;;
56425;SDS011;42330;43.620;3.856;2022-12-18T17:21:31;9.02;;;6.18;;
56425;SDS011;42330;43.620;3.856;2022-12-18T17:24:00;8.88;;;6.05;;